Time;durP1;ratioP1;P1;durP2;ratioP2;P2;SDS_P1;SDS_P2;PMS_P1;PMS_P2;Temp;Humidity;BMP_temperature;BMP_pressure;BME280_temperature;BME280_humidity;BME280_pressure;Samples;Min_cycle;Max_cycle;Signal;HPM_P1;HPM_P2
2023/12/08 00:02:14;;;;;;;10.60;5.90;;;;;;;-4.27;85.32;99466.19;108989;1259;72693;-27
2023/12/08 00:04:42;;;;;;;11.50;7.10;;;;;;;-3.43;82.07;99469.31;108959;1261;59329;-27
2023/12/08 00:07:10;;;;;;;9.30;4.40;;;;;;;-3.73;80.54;99470.98;109000;1259;58858;-27
2023/12/08 00:09:38;;;;;;;21.10;9.20;;;;;;;-4.32;82.96;99472.89;109021;1263;73845;-27
2023/12/08 00:12:06;;;;;;;16.80;8.80;;;;;;;-4.32;83.36;99474.59;108991;1259;73259;-27
2023/12/08 00:14:35;;;;;;;10.10;5.40;;;;;;;-4.23;83.30;99474.96;108890;1259;71792;-27
2023/12/08 00:17:03;;;;;;;18.50;8.70;;;;;;;-4.53;83.69;99474.35;108950;1260;58867;-27
2023/12/08 00:19:31;;;;;;;19.60;10.30;;;;;;;-4.85;85.46;99478.80;109027;1259;60016;-27
2023/12/08 00:21:59;;;;;;;12.10;6.60;;;;;;;-5.23;87.39;99478.35;109030;1258;73889;-27
2023/12/08 00:24:27;;;;;;;17.50;7.50;;;;;;;-4.74;87.24;99482.03;108965;1264;74254;-27
2023/12/08 00:26:54;;;;;;;12.40;6.10;;;;;;;-4.13;83.79;99478.20;109009;1260;71686;-27
2023/12/08 00:29:22;;;;;;;18.60;8.10;;;;;;;-3.91;83.10;99480.27;108968;1260;59230;-27
2023/12/08 00:31:50;;;;;;;21.50;8.30;;;;;;;-4.33;83.40;99474.08;109026;1259;58759;-27
2023/12/08 00:34:19;;;;;;;13.70;8.00;;;;;;;-4.09;82.90;99471.73;109033;1258;72596;-27
2023/12/08 00:36:52;;;;;;;14.20;6.60;;;;;;;-4.45;84.08;99472.05;108976;1259;74803;-27
2023/12/08 00:39:22;;;;;;;13.50;6.50;;;;;;;-4.24;83.40;99479.55;108968;1260;70221;-26
2023/12/08 00:41:52;;;;;;;19.80;8.90;;;;;;;-4.54;84.02;99476.05;108988;1258;60136;-27
2023/12/08 00:44:23;;;;;;;15.40;7.10;;;;;;;-4.63;84.65;99472.95;108972;1260;60052;-27
2023/12/08 00:46:53;;;;;;;13.70;6.50;;;;;;;-4.52;84.70;99470.75;109004;1258;72086;-27
2023/12/08 00:49:23;;;;;;;14.00;7.60;;;;;;;-3.80;82.59;99467.38;109013;1259;72212;-27
2023/12/08 00:51:52;;;;;;;12.30;6.90;;;;;;;-3.65;80.49;99462.20;108933;1259;71418;-27
2023/12/08 00:54:23;;;;;;;15.20;7.00;;;;;;;-4.13;81.81;99466.00;108910;1263;59236;-27
2023/12/08 00:56:53;;;;;;;19.90;10.20;;;;;;;-4.45;83.19;99464.08;108877;1259;60059;-27
2023/12/08 00:59:22;;;;;;;16.00;7.70;;;;;;;-4.50;83.55;99466.84;109024;1259;73888;-27
2023/12/08 01:01:53;;;;;;;17.70;7.60;;;;;;;-4.76;84.52;99465.48;108868;1259;73053;-27
2023/12/08 01:04:24;;;;;;;22.50;11.00;;;;;;;-4.78;84.81;99469.75;108876;1259;71461;-27
2023/12/08 01:06:54;;;;;;;13.50;7.20;;;;;;;-5.03;85.94;99466.13;108997;1258;60281;-27
2023/12/08 01:09:26;;;;;;;20.70;10.90;;;;;;;-4.80;85.54;99473.98;109065;1259;60478;-28
2023/12/08 01:11:56;;;;;;;16.40;8.30;;;;;;;-4.16;82.86;99470.45;109026;1259;71343;-27
2023/12/08 01:14:26;;;;;;;21.10;10.80;;;;;;;-4.20;82.11;99472.04;108883;1259;73211;-27
2023/12/08 01:16:57;;;;;;;16.40;8.50;;;;;;;-4.56;82.79;99469.80;109004;1259;72737;-27
2023/12/08 01:19:28;;;;;;;17.90;9.60;;;;;;;-4.69;84.09;99468.10;108924;1259;58903;-27
2023/12/08 01:21:59;;;;;;;19.40;10.90;;;;;;;-4.83;84.27;99469.47;109010;1258;58692;-27
2023/12/08 01:24:30;;;;;;;15.00;8.20;;;;;;;-4.96;84.82;99466.73;108913;1259;72079;-27
2023/12/08 01:27:01;;;;;;;14.60;8.30;;;;;;;-5.24;86.23;99461.77;108875;1259;74327;-27
2023/12/08 01:29:31;;;;;;;14.70;8.30;;;;;;;-4.31;84.47;99461.49;108890;1259;72768;-26
2023/12/08 01:39:08;;;;;;;18.10;10.10;;;;;;;-4.49;82.25;99450.57;102595;1293;600057;-27
2023/12/08 01:41:36;;;;;;;19.50;9.60;;;;;;;-4.91;83.61;99451.10;104829;1267;61196;-26
2023/12/08 01:51:47;;;;;;;14.40;7.70;;;;;;;-4.03;81.32;99448.05;102644;1290;600202;-28
2023/12/08 01:54:15;;;;;;;10.70;6.30;;;;;;;-4.16;80.24;99447.06;104819;1264;61199;-28
2023/12/08 01:56:43;;;;;;;17.80;9.30;;;;;;;-4.88;82.85;99450.71;104801;1264;61200;-28
2023/12/08 01:59:11;;;;;;;21.20;11.20;;;;;;;-4.70;83.32;99449.83;104825;1266;72261;-28
2023/12/08 02:01:38;;;;;;;23.70;11.50;;;;;;;-4.66;83.13;99449.95;104875;1269;74313;-29
2023/12/08 02:04:06;;;;;;;20.00;9.60;;;;;;;-4.93;83.78;99445.70;104896;1264;71503;-28
2023/12/08 02:06:35;;;;;;;35.70;14.90;;;;;;;-4.93;84.42;99443.31;102141;1266;3708665;-28
2023/12/08 02:09:03;;;;;;;18.60;10.40;;;;;;;-4.62;82.70;99441.77;104882;1265;61126;-28
2023/12/08 02:11:31;;;;;;;14.90;7.60;;;;;;;-4.27;81.39;99445.69;105109;1268;72269;-28
2023/12/08 02:21:40;;;;;;;18.10;9.90;;;;;;;-5.07;84.50;99447.38;102644;1294;600150;-27
2023/12/08 02:32:01;;;;;;;12.70;7.00;;;;;;;-4.80;83.90;99432.66;102752;1290;599506;-28
2023/12/08 02:34:29;;;;;;;12.70;7.80;;;;;;;-4.20;81.69;99430.48;104770;1273;61254;-28
2023/12/08 02:43:46;;;;;;;17.10;8.50;;;;;;;-4.86;82.95;99416.13;102622;1295;599915;-28
2023/12/08 02:46:14;;;;;;;16.70;8.50;;;;;;;-4.92;83.75;99418.26;104893;1269;61233;-27
2023/12/08 02:48:42;;;;;;;17.50;10.10;;;;;;;-5.14;84.42;99419.85;105054;1270;61184;-27
2023/12/08 02:51:20;;;;;;;9.80;6.20;;;;;;;-5.07;85.00;99423.84;104823;1272;71006;-29
2023/12/08 02:53:48;;;;;;;11.60;8.10;;;;;;;-4.71;82.55;99424.27;105025;1270;74286;-27
2023/12/08 02:56:16;;;;;;;16.10;9.00;;;;;;;-4.84;82.80;99422.21;102407;1269;3604695;-29
2023/12/08 02:58:44;;;;;;;22.20;9.40;;;;;;;-4.88;83.03;99425.14;104878;1272;61160;-27
2023/12/08 03:01:11;;;;;;;11.70;7.00;;;;;;;-4.88;83.51;99427.17;105205;1263;61180;-27
2023/12/08 03:03:39;;;;;;;16.10;8.40;;;;;;;-4.91;83.38;99423.98;105226;1269;72636;-27
2023/12/08 03:13:46;;;;;;;15.50;8.70;;;;;;;-4.69;83.08;99428.98;102661;1292;600156;-28
2023/12/08 03:16:14;;;;;;;14.50;8.30;;;;;;;-4.81;83.02;99431.83;105034;1266;61183;-28
2023/12/08 03:18:42;;;;;;;12.60;7.30;;;;;;;-4.79;82.93;99432.98;105093;1267;61116;-28
2023/12/08 03:21:23;;;;;;;20.00;10.90;;;;;;;-4.99;83.15;99435.94;104836;1266;70192;-28
2023/12/08 03:23:50;;;;;;;21.10;9.90;;;;;;;-4.78;83.22;99435.01;104853;1265;74328;-28
2023/12/08 03:26:18;;;;;;;20.10;10.40;;;;;;;-5.10;83.98;99436.73;102905;1258;3577935;-29
2023/12/08 03:28:46;;;;;;;18.30;10.20;;;;;;;-5.35;85.90;99439.87;105634;1256;61173;-28
2023/12/08 03:37:38;;;;;;;13.40;7.90;;;;;;;-4.41;81.41;99431.30;102556;1292;600249;-28
2023/12/08 03:40:08;;;;;;;13.80;7.20;;;;;;;-4.57;82.13;99426.59;105621;1258;61230;-28
2023/12/08 03:42:36;;;;;;;17.60;9.70;;;;;;;-4.96;83.51;99428.12;105525;1260;61181;-28
2023/12/08 03:45:05;;;;;;;19.70;11.10;;;;;;;-5.04;84.21;99432.27;105687;1257;72246;-28
2023/12/08 03:47:33;;;;;;;14.40;7.70;;;;;;;-5.31;85.74;99430.37;105632;1257;74336;-28
2023/12/08 03:50:01;;;;;;;21.10;11.20;;;;;;;-4.76;84.36;99427.52;105671;1257;72660;-28
2023/12/08 03:52:29;;;;;;;16.20;9.00;;;;;;;-4.51;82.25;99423.64;103149;1259;61163;-28
2023/12/08 04:02:38;;;;;;;14.80;8.60;;;;;;;-4.96;84.38;99421.00;102733;1290;600325;-28
2023/12/08 04:05:06;;;;;;;28.60;14.30;;;;;;;-5.05;84.63;99422.46;104837;1264;61167;-28
2023/12/08 04:15:14;;;;;;;19.70;10.80;;;;;;;-4.71;82.72;99415.77;102823;1289;600594;-28
2023/12/08 04:25:23;;;;;;;17.60;9.00;;;;;;;-5.16;85.06;99416.83;102591;1297;600092;-28
2023/12/08 04:27:51;;;;;;;15.00;8.60;;;;;;;-5.09;85.58;99414.38;104842;1270;61048;-28
2023/12/08 04:30:19;;;;;;;17.80;9.40;;;;;;;-4.61;84.25;99414.62;104827;1271;61177;-28
2023/12/08 04:32:47;;;;;;;12.40;7.50;;;;;;;-4.08;81.25;99416.08;104756;1272;70880;-28
2023/12/08 04:35:15;;;;;;;25.80;13.60;;;;;;;-4.22;80.54;99414.92;104745;1267;74370;-28
2023/12/08 04:37:42;;;;;;;22.20;11.10;;;;;;;-4.28;81.20;99415.52;104698;1273;71390;-29
2023/12/08 04:40:11;;;;;;;19.40;9.50;;;;;;;-4.99;83.25;99417.14;102273;1267;3634586;-28
2023/12/08 04:50:18;;;;;;;18.80;9.50;;;;;;;-4.66;84.38;99418.25;102549;1295;600439;-29
2023/12/08 04:52:46;;;;;;;19.20;10.50;;;;;;;-3.64;80.88;99416.36;104735;1272;61190;-28
2023/12/08 04:55:14;;;;;;;22.60;10.60;;;;;;;-3.87;79.51;99410.14;104836;1267;61059;-28
2023/12/08 04:57:42;;;;;;;21.10;12.00;;;;;;;-3.85;79.31;99405.52;104772;1267;72239;-28
2023/12/08 05:00:10;;;;;;;49.70;25.40;;;;;;;-4.20;80.19;99408.45;104771;1272;72995;-28
2023/12/08 05:02:38;;;;;;;51.80;27.10;;;;;;;-4.47;81.64;99411.90;104792;1266;71532;-28
2023/12/08 05:05:06;;;;;;;33.20;18.20;;;;;;;-4.40;82.19;99408.23;102400;1269;3502528;-28
2023/12/08 05:07:34;;;;;;;20.70;10.60;;;;;;;-4.86;82.86;99411.23;104891;1267;61116;-28
2023/12/08 05:17:45;;;;;;;26.10;15.60;;;;;;;-4.30;80.77;99407.40;102587;1292;600107;-28
2023/12/08 05:27:52;;;;;;;37.20;22.40;;;;;;;-4.81;84.01;99413.38;102648;1291;599830;-28
2023/12/08 05:30:20;;;;;;;32.20;18.80;;;;;;;-5.03;84.45;99413.13;105124;1262;61662;-28
2023/12/08 05:32:48;;;;;;;29.60;15.90;;;;;;;-4.55;83.74;99414.55;108843;1263;58723;-26
2023/12/08 05:35:16;;;;;;;29.90;14.40;;;;;;;-4.45;82.28;99410.35;108813;1262;71234;-27
2023/12/08 05:37:43;;;;;;;38.00;20.00;;;;;;;-4.45;82.59;99411.70;108762;1261;74479;-26
2023/12/08 05:40:12;;;;;;;36.60;19.80;;;;;;;-4.43;82.01;99403.20;108759;1261;71360;-27
2023/12/08 05:42:39;;;;;;;38.10;24.50;;;;;;;-4.45;82.39;99405.77;106167;1260;3534328;-27
2023/12/08 05:45:08;;;;;;;32.10;17.20;;;;;;;-4.43;82.70;99411.50;108902;1259;58813;-27
2023/12/08 05:47:36;;;;;;;25.10;14.10;;;;;;;-4.80;83.56;99410.64;109088;1255;72256;-27
2023/12/08 05:50:04;;;;;;;25.90;14.00;;;;;;;-5.11;85.41;99419.15;109215;1255;74302;-26
2023/12/08 05:52:32;;;;;;;19.80;11.20;;;;;;;-4.71;85.00;99421.02;109096;1256;72621;-27
2023/12/08 05:54:59;;;;;;;20.80;11.50;;;;;;;-4.12;81.87;99420.21;109199;1256;58849;-27
2023/12/08 05:57:27;;;;;;;34.40;15.70;;;;;;;-3.64;79.50;99422.48;109184;1255;60078;-27
2023/12/08 05:59:55;;;;;;;24.60;12.80;;;;;;;-4.23;81.06;99426.98;109195;1258;73113;-27
2023/12/08 06:02:26;;;;;;;62.50;33.00;;;;;;;-4.23;81.25;99427.66;109127;1255;74320;-27
2023/12/08 06:04:54;;;;;;;165.70;80.60;;;;;;;-4.60;82.75;99428.18;109053;1255;71058;-27
2023/12/08 06:07:21;;;;;;;349.10;202.60;;;;;;;-4.66;83.50;99432.15;109192;1256;58872;-27
2023/12/08 06:09:49;;;;;;;28.70;16.50;;;;;;;-4.96;85.17;99434.05;109189;1257;58827;-26
2023/12/08 06:12:17;;;;;;;22.20;11.60;;;;;;;-4.25;83.64;99433.09;109137;1255;72963;-26
2023/12/08 06:14:45;;;;;;;22.30;12.50;;;;;;;-3.22;79.78;99436.84;109226;1255;74291;-27
2023/12/08 06:17:12;;;;;;;26.50;13.50;;;;;;;-3.05;77.61;99433.45;109174;1256;72648;-27
2023/12/08 06:19:40;;;;;;;28.10;12.90;;;;;;;-3.06;76.89;99429.75;109152;1255;58846;-27
2023/12/08 06:22:07;;;;;;;30.40;15.70;;;;;;;-3.30;77.54;99427.83;109202;1256;60071;-27
2023/12/08 06:24:35;;;;;;;23.10;12.00;;;;;;;-3.91;79.67;99427.00;109207;1255;73108;-27
2023/12/08 06:27:03;;;;;;;23.60;11.70;;;;;;;-4.34;81.61;99428.66;109217;1256;74288;-27
2023/12/08 06:29:31;;;;;;;26.50;14.20;;;;;;;-4.18;81.83;99433.52;109092;1255;71404;-27
2023/12/08 06:31:58;;;;;;;20.80;11.20;;;;;;;-4.41;82.35;99429.44;109177;1256;59116;-27
2023/12/08 06:34:26;;;;;;;20.00;9.80;;;;;;;-4.51;84.33;99423.64;109121;1255;58883;-27
2023/12/08 06:36:54;;;;;;;22.50;12.20;;;;;;;-3.74;81.15;99417.04;109083;1255;73042;-27
2023/12/08 06:39:22;;;;;;;28.00;14.60;;;;;;;-3.53;79.38;99416.00;109144;1256;73041;-27
2023/12/08 06:41:49;;;;;;;43.70;21.30;;;;;;;-3.53;79.10;99409.38;109103;1255;71464;-27
2023/12/08 06:44:17;;;;;;;47.60;23.00;;;;;;;-3.69;79.48;99407.80;109107;1256;59272;-26
2023/12/08 06:46:45;;;;;;;45.10;21.90;;;;;;;-3.36;79.09;99407.06;109084;1257;58876;-27
2023/12/08 06:49:13;;;;;;;28.10;17.00;;;;;;;-3.53;78.71;99409.05;109121;1256;73063;-27
2023/12/08 06:51:41;;;;;;;35.50;18.60;;;;;;;-3.97;80.36;99411.66;109078;1256;74315;-27
2023/12/08 06:54:08;;;;;;;52.70;27.40;;;;;;;-4.01;81.42;99413.58;109071;1256;72658;-27
2023/12/08 06:56:39;;;;;;;71.20;34.10;;;;;;;-4.28;82.07;99416.20;109086;1256;58821;-27
2023/12/08 06:59:08;;;;;;;34.10;17.40;;;;;;;-4.12;83.07;99417.14;108937;1255;58744;-27
2023/12/08 07:01:36;;;;;;;32.00;17.40;;;;;;;-3.55;80.03;99414.70;109122;1255;73047;-27
2023/12/08 07:04:04;;;;;;;34.60;19.50;;;;;;;-3.24;78.58;99415.15;109077;1257;74344;-27
2023/12/08 07:06:32;;;;;;;44.20;26.40;;;;;;;-3.11;77.95;99410.30;109108;1256;70836;-27
2023/12/08 07:09:00;;;;;;;40.20;18.20;;;;;;;-3.26;78.05;99409.75;109097;1256;58833;-27
2023/12/08 07:11:28;;;;;;;30.10;15.50;;;;;;;-3.72;79.47;99404.45;109070;1255;60021;-27
2023/12/08 07:13:55;;;;;;;32.70;16.40;;;;;;;-3.78;80.51;99403.38;109130;1256;73041;-27
2023/12/08 07:16:23;;;;;;;41.10;21.00;;;;;;;-3.70;80.51;99402.89;109076;1255;74526;-27
2023/12/08 07:18:51;;;;;;;39.00;19.10;;;;;;;-3.68;80.55;99398.64;109096;1255;71662;-27
2023/12/08 07:21:21;;;;;;;36.90;19.80;;;;;;;-4.33;82.28;99397.29;109066;1256;58994;-27
2023/12/08 07:23:49;;;;;;;30.60;17.00;;;;;;;-4.22;83.14;99397.63;109172;1255;58802;-27
2023/12/08 07:26:16;;;;;;;31.30;17.10;;;;;;;-3.66;80.95;99394.86;109077;1255;73055;-27
2023/12/08 07:28:44;;;;;;;32.80;14.80;;;;;;;-3.42;80.05;99392.73;109157;1255;74329;-27
2023/12/08 07:31:13;;;;;;;24.60;12.70;;;;;;;-3.23;78.91;99394.58;109117;1256;71410;-27
2023/12/08 07:33:41;;;;;;;26.90;14.70;;;;;;;-3.35;78.97;99393.78;109069;1256;58833;-27
2023/12/08 07:36:09;;;;;;;33.50;17.90;;;;;;;-3.98;81.33;99391.66;109128;1256;60021;-27
2023/12/08 07:38:37;;;;;;;34.70;20.00;;;;;;;-3.93;81.78;99390.40;109095;1256;71559;-27
2023/12/08 07:41:05;;;;;;;34.80;19.30;;;;;;;-3.63;81.44;99396.83;109085;1256;74331;-27
2023/12/08 07:43:32;;;;;;;30.50;15.60;;;;;;;-3.86;81.42;99402.33;109089;1256;72688;-27
2023/12/08 07:46:00;;;;;;;39.30;19.10;;;;;;;-3.73;82.40;99402.42;109061;1256;60966;-27
2023/12/08 07:48:28;;;;;;;28.40;14.60;;;;;;;-2.78;78.12;99406.08;109127;1256;58855;-27
2023/12/08 07:50:56;;;;;;;24.10;13.30;;;;;;;-2.43;76.57;99404.98;109084;1262;72097;-27
2023/12/08 07:53:23;;;;;;;32.60;15.90;;;;;;;-2.28;75.84;99404.83;109100;1256;72227;-27
2023/12/08 07:55:51;;;;;;;33.00;16.10;;;;;;;-2.67;76.35;99404.80;109038;1256;73021;-27
2023/12/08 07:58:19;;;;;;;28.70;16.30;;;;;;;-3.24;78.84;99405.81;109016;1259;59245;-27
2023/12/08 08:00:47;;;;;;;28.70;14.80;;;;;;;-3.25;78.88;99411.93;109126;1256;60037;-27
2023/12/08 08:03:15;;;;;;;28.20;15.60;;;;;;;-3.40;79.81;99412.55;109067;1256;72720;-27
2023/12/08 08:05:43;;;;;;;26.60;16.00;;;;;;;-3.16;79.81;99419.76;109050;1256;73538;-27
2023/12/08 08:08:10;;;;;;;41.00;22.30;;;;;;;-3.42;80.02;99421.59;109059;1256;72709;-27
2023/12/08 08:10:39;;;;;;;25.30;15.50;;;;;;;-3.42;80.52;99424.64;109006;1259;60856;-27
2023/12/08 08:13:06;;;;;;;29.30;16.70;;;;;;;-3.32;79.83;99427.69;109055;1256;58768;-27
2023/12/08 08:15:34;;;;;;;17.00;9.60;;;;;;;-2.47;77.76;99429.04;109032;1256;73069;-27
2023/12/08 08:18:02;;;;;;;27.40;14.60;;;;;;;-2.46;76.18;99427.83;109091;1256;74341;-27
2023/12/08 08:20:30;;;;;;;27.60;14.10;;;;;;;-2.95;77.68;99425.96;109028;1256;70457;-27
2023/12/08 08:22:57;;;;;;;30.70;16.20;;;;;;;-2.87;78.11;99430.05;109033;1256;59299;-27
2023/12/08 08:25:25;;;;;;;21.20;11.90;;;;;;;-3.00;78.66;99426.58;109059;1256;58850;-27
2023/12/08 08:27:53;;;;;;;26.90;15.20;;;;;;;-3.20;79.50;99430.20;108934;1256;71824;-27
2023/12/08 08:30:21;;;;;;;28.00;13.30;;;;;;;-3.47;80.48;99431.36;109050;1256;74326;-27
2023/12/08 08:32:48;;;;;;;28.30;15.40;;;;;;;-3.45;80.96;99435.55;109071;1256;72711;-27
2023/12/08 08:35:16;;;;;;;22.90;10.90;;;;;;;-3.55;81.58;99430.30;109003;1256;59575;-27
2023/12/08 08:37:44;;;;;;;19.40;10.20;;;;;;;-2.98;79.66;99427.54;109056;1257;61748;-27
2023/12/08 08:40:12;;;;;;;31.70;14.80;;;;;;;-2.33;76.63;99422.45;109042;1256;73071;-27
2023/12/08 08:42:40;;;;;;;103.80;43.20;;;;;;;-2.65;76.63;99417.02;109054;1256;74302;-27
2023/12/08 08:45:08;;;;;;;95.70;44.60;;;;;;;-2.76;77.56;99420.13;109032;1256;71493;-27
2023/12/08 08:47:35;;;;;;;45.80;21.10;;;;;;;-3.19;79.16;99416.08;109016;1257;58797;-27
2023/12/08 08:50:04;;;;;;;41.80;18.30;;;;;;;-3.10;79.01;99416.91;109096;1256;60198;-27
2023/12/08 08:52:35;;;;;;;24.60;11.90;;;;;;;-3.16;79.49;99416.02;109012;1256;73047;-27
2023/12/08 08:55:04;;;;;;;27.20;14.50;;;;;;;-3.32;80.45;99413.76;109068;1257;73322;-27
2023/12/08 08:57:32;;;;;;;27.60;13.10;;;;;;;-3.54;81.22;99413.48;108976;1257;72659;-27
2023/12/08 08:59:59;;;;;;;19.20;10.30;;;;;;;-3.66;82.22;99413.70;109059;1259;60916;-27
2023/12/08 09:02:28;;;;;;;26.60;13.40;;;;;;;-2.96;80.61;99414.25;109115;1255;58721;-27
2023/12/08 09:04:55;;;;;;;32.80;17.00;;;;;;;-2.54;77.98;99410.48;109118;1255;71976;-27
2023/12/08 09:07:23;;;;;;;40.90;25.20;;;;;;;-3.03;78.50;99405.58;109127;1255;74312;-27
2023/12/08 09:09:51;;;;;;;39.90;21.50;;;;;;;-3.29;80.26;99405.40;109116;1256;72652;-27
2023/12/08 09:12:19;;;;;;;21.80;11.20;;;;;;;-2.93;79.29;99402.65;109086;1256;59453;-27
2023/12/08 09:14:46;;;;;;;35.80;17.30;;;;;;;-3.23;80.22;99398.81;109076;1255;59119;-28
2023/12/08 09:17:14;;;;;;;27.00;14.00;;;;;;;-3.23;80.67;99398.66;109065;1256;72155;-27
2023/12/08 09:19:42;;;;;;;26.20;13.60;;;;;;;-3.33;81.09;99395.95;109114;1256;76598;-27
2023/12/08 09:22:10;;;;;;;21.60;10.00;;;;;;;-3.24;80.75;99396.29;109091;1256;72759;-27
2023/12/08 09:24:37;;;;;;;26.90;13.40;;;;;;;-2.66;78.83;99394.92;109083;1255;58775;-27
2023/12/08 09:27:05;;;;;;;27.30;13.10;;;;;;;-2.13;76.55;99389.84;109090;1256;60001;-27
2023/12/08 09:29:33;;;;;;;28.40;13.30;;;;;;;-2.22;76.77;99390.39;109086;1261;73035;-27
2023/12/08 09:32:00;;;;;;;24.30;13.20;;;;;;;-2.34;76.43;99391.19;109121;1255;76333;-27
2023/12/08 09:34:28;;;;;;;27.90;12.50;;;;;;;-2.57;77.45;99395.43;109066;1256;72503;-27
2023/12/08 09:36:56;;;;;;;16.80;7.20;;;;;;;-2.64;78.16;99398.65;109087;1256;59415;-27
2023/12/08 09:39:44;;;;;;;25.40;9.80;;;;;;;-2.88;79.25;99394.73;109064;1256;59178;-27
2023/12/08 09:42:16;;;;;;;24.50;13.80;;;;;;;-2.91;79.14;99395.29;109073;1257;73892;-27
2023/12/08 09:44:44;;;;;;;29.90;14.20;;;;;;;-3.14;80.43;99397.81;109010;1256;73244;-27
2023/12/08 09:47:12;;;;;;;18.80;10.30;;;;;;;-3.33;81.47;99397.48;109009;1260;72710;-27
2023/12/08 09:49:42;;;;;;;16.40;9.00;;;;;;;-3.03;80.68;99394.19;109018;1260;58802;-27
2023/12/08 09:52:10;;;;;;;23.50;14.20;;;;;;;-2.46;78.30;99387.52;109033;1263;58793;-27
2023/12/08 09:54:38;;;;;;;23.80;12.00;;;;;;;-2.52;77.89;99384.77;109027;1256;73848;-27
2023/12/08 09:57:05;;;;;;;27.60;13.60;;;;;;;-2.24;77.05;99387.73;108965;1256;73550;-27
2023/12/08 09:59:34;;;;;;;20.80;12.90;;;;;;;-2.69;78.30;99390.77;109074;1256;72027;-27
2023/12/08 10:02:02;;;;;;;19.00;10.10;;;;;;;-2.72;79.11;99391.02;108962;1256;58770;-27
2023/12/08 10:04:30;;;;;;;25.70;13.00;;;;;;;-2.81;79.61;99392.55;109042;1263;60023;-27
2023/12/08 10:06:58;;;;;;;30.40;14.40;;;;;;;-2.89;80.06;99395.92;109087;1256;72961;-27
2023/12/08 10:09:26;;;;;;;19.10;11.50;;;;;;;-3.16;80.40;99394.79;108992;1256;74350;-27
2023/12/08 10:11:54;;;;;;;22.90;12.10;;;;;;;-2.91;80.22;99390.55;109005;1256;74532;-27
2023/12/08 10:14:22;;;;;;;23.80;14.70;;;;;;;-2.51;78.50;99381.19;109081;1256;59711;-27
2023/12/08 10:16:50;;;;;;;22.30;13.40;;;;;;;-2.76;78.75;99374.75;109048;1257;59975;-27
2023/12/08 10:19:21;;;;;;;41.00;22.20;;;;;;;-2.80;78.76;99369.76;109050;1256;71934;-27
2023/12/08 10:22:02;;;;;;;22.70;13.00;;;;;;;-2.62;78.41;99362.06;109105;1256;74270;-27
2023/12/08 10:24:30;;;;;;;31.00;16.40;;;;;;;-3.11;80.24;99361.40;109009;1256;72489;-27
2023/12/08 10:26:59;;;;;;;24.50;13.00;;;;;;;-3.02;80.87;99360.52;108971;1263;60224;-27
2023/12/08 10:29:31;;;;;;;44.20;21.10;;;;;;;-2.92;80.69;99359.98;109106;1256;58804;-27
2023/12/08 10:31:58;;;;;;;44.50;20.00;;;;;;;-3.17;80.97;99353.02;108938;1256;74941;-27
2023/12/08 10:34:26;;;;;;;42.40;24.20;;;;;;;-2.84;80.43;99350.79;109094;1256;73048;-27
2023/12/08 10:36:55;;;;;;;27.20;14.50;;;;;;;-2.21;77.63;99348.19;109034;1257;71189;-27
2023/12/08 10:39:24;;;;;;;34.60;16.20;;;;;;;-2.16;76.96;99347.73;108921;1256;60930;-27
2023/12/08 10:41:52;;;;;;;22.50;13.70;;;;;;;-1.79;76.06;99346.80;109003;1257;59721;-27
2023/12/08 10:44:23;;;;;;;25.70;13.00;;;;;;;-2.02;75.88;99346.36;109036;1257;72949;-27
2023/12/08 10:46:53;;;;;;;33.30;15.50;;;;;;;-2.51;77.93;99347.33;109017;1256;75395;-27
2023/12/08 10:49:21;;;;;;;23.50;13.90;;;;;;;-2.77;79.43;99348.62;109064;1257;74386;-27
2023/12/08 10:51:50;;;;;;;25.70;13.00;;;;;;;-2.95;80.14;99350.02;108988;1257;58848;-27
2023/12/08 10:54:17;;;;;;;24.30;11.20;;;;;;;-3.18;80.85;99352.87;109091;1257;61040;-27
2023/12/08 10:56:46;;;;;;;18.30;10.80;;;;;;;-3.02;80.70;99349.80;109040;1256;72953;-27
2023/12/08 10:59:17;;;;;;;19.20;11.20;;;;;;;-2.25;78.38;99349.48;109071;1257;74387;-27
2023/12/08 11:01:45;;;;;;;16.60;8.80;;;;;;;-2.11;76.60;99351.35;108892;1257;71821;-27
2023/12/08 11:04:13;;;;;;;22.10;10.70;;;;;;;-2.21;76.87;99356.67;108999;1256;59141;-27
2023/12/08 11:06:49;;;;;;;23.90;12.10;;;;;;;-2.36;77.21;99354.66;109077;1256;60039;-27
2023/12/08 11:09:18;;;;;;;19.80;12.00;;;;;;;-2.44;77.65;99349.75;108943;1256;74775;-27
2023/12/08 11:11:53;;;;;;;25.40;12.70;;;;;;;-2.37;77.57;99347.20;109024;1257;76014;-27
2023/12/08 11:14:44;;;;;;;23.70;13.50;;;;;;;-2.39;77.84;99348.62;109024;1257;74942;-27
2023/12/08 11:17:28;;;;;;;23.20;12.10;;;;;;;-2.59;78.39;99346.34;109055;1256;59143;-27
2023/12/08 11:19:57;;;;;;;18.60;9.70;;;;;;;-2.86;80.14;99341.00;108993;1256;60939;-27
2023/12/08 11:22:25;;;;;;;29.60;15.40;;;;;;;-2.30;77.77;99337.00;108916;1256;73650;-27
2023/12/08 11:24:54;;;;;;;21.10;11.60;;;;;;;-1.98;75.58;99332.30;109030;1257;75952;-27
2023/12/08 11:27:24;;;;;;;21.30;11.90;;;;;;;-1.86;75.62;99334.55;109028;1257;73612;-27
2023/12/08 11:30:10;;;;;;;29.90;15.60;;;;;;;-1.86;75.72;99336.27;109062;1257;58834;-27
2023/12/08 11:32:51;;;;;;;22.80;13.10;;;;;;;-2.42;76.69;99332.34;109021;1263;62176;-27
2023/12/08 11:35:21;;;;;;;28.20;14.50;;;;;;;-2.60;78.87;99335.64;108824;1257;75409;-27
2023/12/08 11:37:52;;;;;;;27.20;14.00;;;;;;;-2.76;78.92;99334.64;109019;1256;75943;-27
2023/12/08 11:40:24;;;;;;;36.30;17.40;;;;;;;-2.65;78.89;99330.65;109003;1259;71511;-27
2023/12/08 11:42:56;;;;;;;29.50;14.80;;;;;;;-2.95;80.13;99327.42;108922;1257;59179;-27
2023/12/08 11:45:26;;;;;;;22.60;12.50;;;;;;;-2.78;79.59;99326.23;108993;1259;62242;-27
2023/12/08 11:47:56;;;;;;;24.10;13.70;;;;;;;-2.35;78.34;99324.36;109020;1258;75359;-27
2023/12/08 11:50:26;;;;;;;23.00;13.60;;;;;;;-2.30;77.45;99330.54;108837;1257;73409;-27
2023/12/08 11:52:56;;;;;;;25.10;13.00;;;;;;;-2.33;77.81;99331.98;108951;1257;71546;-27
2023/12/08 11:55:25;;;;;;;26.50;12.80;;;;;;;-2.48;78.13;99329.42;108951;1259;58781;-27
2023/12/08 11:58:07;;;;;;;28.90;13.40;;;;;;;-2.40;78.72;99332.14;108873;1257;58776;-27
2023/12/08 12:00:39;;;;;;;46.50;24.00;;;;;;;-2.46;78.60;99332.63;109019;1257;75376;-27
2023/12/08 12:03:10;;;;;;;29.80;14.30;;;;;;;-2.68;79.23;99330.73;108902;1257;74445;-27
2023/12/08 12:05:43;;;;;;;11.90;6.20;;;;;;;-2.82;80.37;99332.59;108994;1263;73436;-28
2023/12/08 12:08:14;;;;;;;22.30;11.50;;;;;;;-2.25;78.65;99337.05;108966;1257;59241;-27
2023/12/08 12:10:45;;;;;;;21.70;12.00;;;;;;;-1.89;76.43;99341.77;109007;1257;61520;-27
2023/12/08 12:13:14;;;;;;;20.40;11.90;;;;;;;-1.79;75.73;99343.23;108899;1258;71637;-27
2023/12/08 12:15:44;;;;;;;24.80;13.00;;;;;;;-1.99;76.26;99343.39;108999;1257;75788;-27
2023/12/08 12:18:13;;;;;;;31.00;16.10;;;;;;;-2.24;76.81;99337.52;108931;1263;74190;-27
2023/12/08 12:20:45;;;;;;;30.80;16.20;;;;;;;-2.39;77.69;99329.39;108890;1257;59265;-27
2023/12/08 12:23:16;;;;;;;38.00;20.70;;;;;;;-2.75;79.05;99326.13;109057;1257;60015;-27
2023/12/08 12:25:48;;;;;;;36.40;19.40;;;;;;;-2.67;79.40;99331.41;108998;1257;75316;-27
2023/12/08 12:28:18;;;;;;;36.80;17.50;;;;;;;-3.04;80.61;99339.15;108963;1257;74307;-27
2023/12/08 12:30:50;;;;;;;40.70;19.50;;;;;;;-2.83;80.63;99340.94;108930;1257;72757;-27
2023/12/08 12:40:56;;;;;;;70.30;32.30;;;;;;;-2.23;77.33;99341.95;102640;1292;599462;-28
2023/12/08 12:43:24;;;;;;;81.40;37.50;;;;;;;-2.46;78.29;99341.11;104859;1267;61071;-28
2023/12/08 12:45:52;;;;;;;46.30;22.20;;;;;;;-2.51;78.63;99335.46;104854;1267;61130;-28
2023/12/08 12:48:22;;;;;;;32.80;16.00;;;;;;;-2.77;80.20;99335.19;104807;1272;75035;-28
2023/12/08 12:50:54;;;;;;;42.20;22.50;;;;;;;-2.75;80.38;99335.65;104749;1267;76230;-28
2023/12/08 12:53:24;;;;;;;30.80;16.30;;;;;;;-2.41;79.44;99339.47;102676;1270;3659024;-28
2023/12/08 12:56:04;;;;;;;22.10;12.10;;;;;;;-2.02;77.80;99348.58;104925;1269;61196;-28
2023/12/08 12:58:32;;;;;;;19.10;11.50;;;;;;;-2.06;77.67;99345.95;105090;1263;61098;-28
2023/12/08 13:01:09;;;;;;;26.00;14.20;;;;;;;-1.96;77.25;99340.09;105036;1266;71633;-28
2023/12/08 13:03:37;;;;;;;38.90;21.60;;;;;;;-2.21;77.46;99333.06;104856;1263;74750;-28